createdAt,value
2023-03-16T00:00:31.848Z,2.36
2023-03-16T00:03:33.674Z,2.17
2023-03-16T00:06:35.347Z,2.15
2023-03-16T00:09:37.830Z,2.06
2023-03-16T00:12:39.494Z,2.08
2023-03-16T00:15:41.760Z,2.13
2023-03-16T00:18:43.385Z,2.10
2023-03-16T00:21:47.976Z,1.94
2023-03-16T00:24:49.657Z,1.94
2023-03-16T00:27:51.323Z,1.81
2023-03-16T00:30:52.974Z,1.61
2023-03-16T00:33:54.617Z,1.60
2023-03-16T00:36:56.241Z,1.62
2023-03-16T00:39:58.402Z,1.65
2023-03-16T00:43:00.041Z,1.74
2023-03-16T00:46:01.922Z,1.67
2023-03-16T00:49:03.700Z,1.66
2023-03-16T00:52:06.419Z,1.78
2023-03-16T00:55:09.638Z,1.77
2023-03-16T00:58:11.309Z,1.55
2023-03-16T01:01:15.040Z,1.76
2023-03-16T01:04:16.747Z,1.67
2023-03-16T01:07:18.472Z,1.59
2023-03-16T01:10:20.185Z,1.55
2023-03-16T01:13:22.018Z,1.55
2023-03-16T01:16:23.705Z,1.49
2023-03-16T01:19:25.372Z,1.58
2023-03-16T01:22:27.132Z,1.50
2023-03-16T01:25:29.484Z,1.39
2023-03-16T01:28:32.158Z,1.39
2023-03-16T01:31:34.153Z,1.24
2023-03-16T01:34:36.044Z,1.18
2023-03-16T01:37:39.012Z,1.03
2023-03-16T01:40:50.258Z,1.06
2023-03-16T01:43:51.942Z,1.10
2023-03-16T01:46:53.603Z,1.13
2023-03-16T01:49:56.218Z,1.15
2023-03-16T01:53:00.849Z,1.08
2023-03-16T01:56:03.259Z,1.10
2023-03-16T01:59:07.517Z,1.27
2023-03-16T02:02:09.818Z,1.22
2023-03-16T02:05:14.235Z,1.14
2023-03-16T02:08:16.100Z,1.21
2023-03-16T02:11:17.744Z,1.28
2023-03-16T02:14:28.285Z,1.41
2023-03-16T02:17:30.868Z,1.23
2023-03-16T02:20:44.288Z,0.98
2023-03-16T02:23:46.680Z,0.86
2023-03-16T02:27:01.236Z,0.87
2023-03-16T02:30:16.942Z,0.78
2023-03-16T02:33:33.002Z,0.68
2023-03-16T02:36:34.816Z,0.75
2023-03-16T02:39:36.597Z,0.58
2023-03-16T02:42:38.731Z,0.65
2023-03-16T02:45:44.115Z,0.63
2023-03-16T02:48:50.902Z,0.66
2023-03-16T02:51:54.219Z,0.68
2023-03-16T02:54:56.219Z,0.69
2023-03-16T02:57:57.883Z,0.65
2023-03-16T03:00:59.572Z,0.79
2023-03-16T03:04:01.921Z,0.61
2023-03-16T03:07:03.556Z,0.56
2023-03-16T03:10:06.585Z,0.56
2023-03-16T03:13:08.531Z,0.60
2023-03-16T03:16:10.700Z,0.66
2023-03-16T03:19:12.927Z,0.77
2023-03-16T03:22:15.195Z,0.55
2023-03-16T03:25:17.252Z,0.65
2023-03-16T03:28:18.921Z,0.78
2023-03-16T03:31:21.583Z,0.75
2023-03-16T03:34:23.267Z,0.70
2023-03-16T03:37:24.895Z,0.77
2023-03-16T03:40:27.260Z,0.85
2023-03-16T03:43:35.804Z,0.77
2023-03-16T03:46:38.283Z,0.43
2023-03-16T03:49:40.048Z,0.41
2023-03-16T03:52:41.805Z,0.45
2023-03-16T03:55:43.658Z,0.48
2023-03-16T03:58:45.331Z,0.59
2023-03-16T04:01:51.313Z,0.42
2023-03-16T04:04:53.171Z,0.26
2023-03-16T04:07:55.074Z,0.48
2023-03-16T04:10:57.484Z,0.46
2023-03-16T04:13:59.252Z,0.43
2023-03-16T04:17:01.180Z,0.34
2023-03-16T04:20:06.662Z,0.32
2023-03-16T04:23:08.451Z,0.41
2023-03-16T04:26:12.415Z,0.46
2023-03-16T04:29:17.037Z,0.32
2023-03-16T04:32:19.129Z,0.30
2023-03-16T04:35:21.083Z,0.28
2023-03-16T04:38:26.800Z,0.18
2023-03-16T04:41:30.953Z,0.24
2023-03-16T04:44:55.432Z,0.34
2023-03-16T04:47:57.118Z,0.37
2023-03-16T04:50:59.285Z,0.33
2023-03-16T04:54:04.589Z,0.37
2023-03-16T04:57:10.210Z,0.49
2023-03-16T05:00:19.682Z,0.45
2023-03-16T05:03:53.355Z,0.32
2023-03-16T05:06:55.618Z,0.37
2023-03-16T05:10:02.172Z,0.40
2023-03-16T05:13:04.157Z,0.44
2023-03-16T05:16:06.498Z,0.38
2023-03-16T05:19:12.781Z,0.40
2023-03-16T05:22:14.454Z,0.44
2023-03-16T05:25:30.365Z,0.57
2023-03-16T05:28:36.106Z,0.50
2023-03-16T05:31:41.315Z,0.61
2023-03-16T05:34:49.280Z,0.56
2023-03-16T05:37:51.024Z,0.68
2023-03-16T05:40:54.980Z,0.91
2023-03-16T05:44:13.929Z,0.99
2023-03-16T05:47:33.984Z,1.09
2023-03-16T05:50:35.657Z,0.96
2023-03-16T05:53:37.528Z,1.09
2023-03-16T05:56:46.547Z,1.16
2023-03-16T05:59:49.481Z,1.00
2023-03-16T06:02:51.698Z,0.98
2023-03-16T06:05:54.142Z,0.93
2023-03-16T06:09:04.594Z,1.01
2023-03-16T06:12:09.827Z,1.01
2023-03-16T06:15:12.439Z,1.08
2023-03-16T06:18:14.418Z,1.16
2023-03-16T06:21:17.058Z,1.12
2023-03-16T06:24:21.369Z,1.33
2023-03-16T06:27:23.052Z,0.99
2023-03-16T06:30:40.474Z,0.89
2023-03-16T06:33:43.076Z,0.94
2023-03-16T06:36:44.804Z,1.14
2023-03-16T06:39:48.050Z,1.24
2023-03-16T06:42:51.419Z,1.22
2023-03-16T06:45:53.394Z,1.38
2023-03-16T06:48:59.386Z,1.46
2023-03-16T06:52:01.114Z,1.46
2023-03-16T06:55:02.933Z,1.73
2023-03-16T06:58:08.570Z,1.79
2023-03-16T07:01:10.864Z,1.90
2023-03-16T07:04:12.645Z,2.06
2023-03-16T07:07:15.306Z,2.03
2023-03-16T07:10:18.030Z,1.88
2023-03-16T07:13:19.685Z,1.88
2023-03-16T07:16:21.405Z,1.84
2023-03-16T07:19:26.180Z,2.04
2023-03-16T07:22:30.393Z,1.92
2023-03-16T07:25:32.226Z,1.93
2023-03-16T07:28:43.866Z,1.93
2023-03-16T07:31:45.806Z,2.11
2023-03-16T07:34:53.090Z,2.06
2023-03-16T07:37:55.532Z,2.20
2023-03-16T07:40:59.852Z,2.10
2023-03-16T07:44:01.987Z,2.22
2023-03-16T07:47:03.636Z,2.42
2023-03-16T07:50:08.454Z,2.61
2023-03-16T07:53:10.595Z,2.75
2023-03-16T07:56:14.661Z,2.76
2023-03-16T07:59:21.365Z,2.90
2023-03-16T08:02:23.227Z,2.79
2023-03-16T08:05:28.981Z,3.04
2023-03-16T08:08:35.052Z,2.96
2023-03-16T08:11:36.846Z,2.90
2023-03-16T08:14:40.118Z,3.04
2023-03-16T08:17:48.240Z,3.11
2023-03-16T08:20:56.938Z,3.25
2023-03-16T08:23:59.921Z,3.55
2023-03-16T08:27:02.262Z,3.86
2023-03-16T08:30:07.065Z,4.07
2023-03-16T08:33:11.461Z,4.05
2023-03-16T08:36:18.645Z,4.13
2023-03-16T08:39:26.810Z,4.35
2023-03-16T08:42:28.821Z,4.44
2023-03-16T08:45:34.573Z,4.57
2023-03-16T08:48:36.280Z,4.65
2023-03-16T08:51:38.102Z,4.74
2023-03-16T08:54:43.069Z,4.72
2023-03-16T08:57:46.665Z,4.73
2023-03-16T09:00:51.144Z,4.78
2023-03-16T09:03:55.865Z,4.80
2023-03-16T09:07:11.813Z,4.98
2023-03-16T09:10:13.562Z,5.00
2023-03-16T09:13:15.225Z,5.26
2023-03-16T09:16:16.911Z,5.51
2023-03-16T09:19:18.620Z,5.76
2023-03-16T09:22:20.449Z,5.80
2023-03-16T09:25:22.703Z,5.85
2023-03-16T09:28:24.346Z,5.92
2023-03-16T09:31:26.038Z,5.88
2023-03-16T09:34:31.503Z,5.81
2023-03-16T09:37:44.875Z,5.86
2023-03-16T09:40:55.476Z,6.07
2023-03-16T09:44:20.743Z,6.15
2023-03-16T09:47:25.873Z,5.97
2023-03-16T09:50:35.274Z,5.91
2023-03-16T09:53:47.258Z,6.09
2023-03-16T09:56:48.900Z,6.18
2023-03-16T09:59:50.550Z,6.28
2023-03-16T10:03:19.479Z,6.43
2023-03-16T10:06:21.153Z,6.43
2023-03-16T10:09:33.048Z,6.32
2023-03-16T10:12:37.794Z,6.46
2023-03-16T10:15:39.436Z,6.50
2023-03-16T10:18:46.686Z,6.69
2023-03-16T10:21:50.946Z,6.73
2023-03-16T10:24:55.504Z,7.06
2023-03-16T10:27:57.471Z,7.33
2023-03-16T10:31:00.184Z,7.49
2023-03-16T10:34:04.770Z,7.19
2023-03-16T10:37:06.485Z,7.05
2023-03-16T10:40:09.295Z,7.52
2023-03-16T10:43:14.174Z,7.84
2023-03-16T10:46:16.294Z,8.21
2023-03-16T10:49:25.931Z,8.56
2023-03-16T10:52:46.392Z,8.96
2023-03-16T10:55:48.129Z,9.44
2023-03-16T10:58:52.456Z,9.90
2023-03-16T11:01:55.191Z,9.74
2023-03-16T11:04:56.945Z,9.79
2023-03-16T11:07:58.541Z,10.17
2023-03-16T11:11:00.642Z,10.35
2023-03-16T11:14:04.091Z,11.17
2023-03-16T11:17:19.485Z,11.50
2023-03-16T11:20:23.744Z,11.58
2023-03-16T11:23:31.603Z,11.60
2023-03-16T11:26:37.495Z,11.82
2023-03-16T11:29:48.230Z,12.65
2023-03-16T11:32:53.179Z,13.23
2023-03-16T11:36:13.017Z,13.69
2023-03-16T11:39:36.317Z,13.85
2023-03-16T11:42:39.304Z,14.38
2023-03-16T11:46:11.645Z,15.18
2023-03-16T11:49:25.532Z,16.05
2023-03-16T11:52:57.781Z,16.42
2023-03-16T11:56:21.168Z,16.86
2023-03-16T11:59:46.278Z,17.25
2023-03-16T12:03:02.802Z,17.41
2023-03-16T12:06:42.464Z,17.91
2023-03-16T12:10:16.702Z,17.84
2023-03-16T12:13:27.333Z,18.08
2023-03-16T12:17:01.986Z,18.08
2023-03-16T12:20:27.310Z,17.99
2023-03-16T12:23:31.853Z,18.04
2023-03-16T12:26:39.246Z,18.24
2023-03-16T12:29:43.189Z,18.10
2023-03-16T12:33:04.679Z,18.25
2023-03-16T12:36:35.896Z,19.21
2023-03-16T12:40:15.039Z,20.22
2023-03-16T12:43:28.462Z,19.80
2023-03-16T12:47:03.433Z,18.16
2023-03-16T12:50:10.063Z,18.13
2023-03-16T12:53:42.940Z,19.66
2023-03-16T12:56:47.922Z,21.00
2023-03-16T12:59:49.685Z,21.74
2023-03-16T13:02:53.355Z,22.37
2023-03-16T13:05:57.264Z,22.60
2023-03-16T13:08:59.958Z,22.44
2023-03-16T13:12:01.644Z,22.29
2023-03-16T13:15:27.047Z,20.75
2023-03-16T13:18:34.866Z,19.81
2023-03-16T13:21:40.471Z,20.59
2023-03-16T13:25:14.565Z,21.39
2023-03-16T13:28:16.213Z,22.43
2023-03-16T13:31:35.910Z,22.79
2023-03-16T13:35:01.106Z,23.54
2023-03-16T13:38:04.755Z,23.87
2023-03-16T13:41:12.529Z,24.07
2023-03-16T13:44:15.088Z,24.54
2023-03-16T13:47:19.922Z,24.17
2023-03-16T13:50:28.067Z,23.94
2023-03-16T13:53:31.049Z,23.25
2023-03-16T13:56:32.774Z,21.99
2023-03-16T13:59:37.470Z,21.06
2023-03-16T14:02:42.775Z,20.73
2023-03-16T14:05:44.833Z,21.05
2023-03-16T14:08:48.127Z,20.36
2023-03-16T14:11:51.943Z,18.78
2023-03-16T14:14:55.328Z,19.29
2023-03-16T14:18:08.812Z,20.57
2023-03-16T14:21:14.585Z,21.93
2023-03-16T14:24:35.746Z,23.04
2023-03-16T14:27:41.382Z,23.65
2023-03-16T14:30:53.551Z,23.83
2023-03-16T14:34:01.653Z,24.01
2023-03-16T14:37:09.314Z,24.66
2023-03-16T14:40:26.145Z,24.97
2023-03-16T14:43:36.121Z,24.90
2023-03-16T14:46:39.640Z,25.27
2023-03-16T14:49:43.295Z,24.92
2023-03-16T14:52:45.146Z,24.96
2023-03-16T14:55:47.301Z,25.18
2023-03-16T14:58:54.931Z,24.34
2023-03-16T15:01:56.655Z,22.31
2023-03-16T15:04:58.757Z,20.61
2023-03-16T15:08:00.498Z,19.20
2023-03-16T15:11:05.053Z,17.82
2023-03-16T15:14:10.563Z,17.13
2023-03-16T15:17:12.165Z,16.59
2023-03-16T15:20:15.258Z,16.21
2023-03-16T15:23:16.914Z,15.68
2023-03-16T15:26:24.492Z,15.51
2023-03-16T15:29:26.684Z,15.22
2023-03-16T15:32:28.445Z,14.77
2023-03-16T15:35:30.306Z,14.62
2023-03-16T15:38:33.078Z,14.47
2023-03-16T15:41:46.822Z,14.24
2023-03-16T15:44:49.671Z,13.71
2023-03-16T15:47:52.390Z,13.60
2023-03-16T15:51:20.984Z,13.58
2023-03-16T15:54:22.628Z,13.51
2023-03-16T15:57:24.278Z,13.38
2023-03-16T16:00:36.682Z,13.09
2023-03-16T16:03:38.365Z,13.04
2023-03-16T16:06:40.048Z,12.74
2023-03-16T16:09:41.668Z,12.62
2023-03-16T16:12:44.696Z,12.45
2023-03-16T16:15:46.450Z,12.19
2023-03-16T16:18:48.175Z,12.23
2023-03-16T16:21:50.197Z,12.14
2023-03-16T16:24:52.244Z,12.17
2023-03-16T16:27:54.034Z,12.09
2023-03-16T16:30:55.879Z,12.03
2023-03-16T16:33:57.594Z,11.93
2023-03-16T16:36:59.260Z,11.83
2023-03-16T16:40:01.131Z,11.74
2023-03-16T16:43:03.082Z,11.69
2023-03-16T16:46:06.663Z,11.53
2023-03-16T16:49:22.901Z,11.44
2023-03-16T16:52:24.766Z,11.27
2023-03-16T16:55:26.685Z,11.02
2023-03-16T16:58:29.747Z,10.87
2023-03-16T17:01:32.841Z,10.63
2023-03-16T17:04:34.969Z,10.52
2023-03-16T17:07:36.805Z,10.43
2023-03-16T17:10:39.050Z,10.37
2023-03-16T17:13:41.196Z,10.27
2023-03-16T17:16:43.293Z,10.15
2023-03-16T17:19:45.720Z,10.04
2023-03-16T17:22:48.537Z,9.94
2023-03-16T17:25:50.777Z,9.82
2023-03-16T17:28:57.109Z,9.69
2023-03-16T17:32:04.286Z,9.49
2023-03-16T17:35:14.241Z,9.44
2023-03-16T17:38:21.528Z,9.40
2023-03-16T17:41:24.701Z,9.25
2023-03-16T17:44:31.048Z,9.11
2023-03-16T17:47:33.711Z,9.01
2023-03-16T17:50:35.869Z,8.91
2023-03-16T17:53:38.034Z,8.83
2023-03-16T17:56:41.134Z,8.66
2023-03-16T17:59:46.315Z,8.47
2023-03-16T18:02:54.513Z,8.42
2023-03-16T18:05:56.759Z,8.31
2023-03-16T18:08:59.383Z,8.27
2023-03-16T18:12:01.897Z,8.20
2023-03-16T18:15:05.057Z,8.08
2023-03-16T18:18:07.724Z,7.96
2023-03-16T18:21:20.420Z,7.90
2023-03-16T18:24:22.932Z,7.82
2023-03-16T18:27:25.706Z,7.74
2023-03-16T18:30:28.195Z,7.68
2023-03-16T18:33:39.213Z,7.64
2023-03-16T18:36:41.849Z,7.58
2023-03-16T18:39:44.340Z,7.56
2023-03-16T18:42:46.841Z,7.53
2023-03-16T18:45:49.236Z,7.40
2023-03-16T18:49:01.520Z,7.31
2023-03-16T18:52:04.779Z,7.29
2023-03-16T18:55:15.105Z,7.24
2023-03-16T18:58:20.603Z,7.19
2023-03-16T19:01:26.544Z,7.05
2023-03-16T19:04:30.248Z,6.85
2023-03-16T19:07:35.052Z,6.81
2023-03-16T19:10:40.156Z,6.73
2023-03-16T19:13:43.083Z,6.78
2023-03-16T19:16:48.927Z,6.66
2023-03-16T19:19:52.945Z,6.52
2023-03-16T19:23:14.426Z,6.56
2023-03-16T19:26:18.584Z,6.48
2023-03-16T19:29:28.648Z,6.29
2023-03-16T19:32:31.473Z,6.32
2023-03-16T19:35:50.730Z,6.25
2023-03-16T19:38:55.230Z,6.13
2023-03-16T19:42:00.860Z,6.14
2023-03-16T19:45:07.354Z,6.01
2023-03-16T19:48:15.745Z,5.82
2023-03-16T19:51:18.548Z,5.67
2023-03-16T19:54:29.109Z,5.67
2023-03-16T19:57:34.313Z,5.62
2023-03-16T20:00:38.292Z,5.57
2023-03-16T20:03:41.043Z,5.42
2023-03-16T20:06:44.676Z,5.40
2023-03-16T20:09:47.264Z,5.32
2023-03-16T20:12:52.459Z,5.15
2023-03-16T20:15:55.132Z,5.14
2023-03-16T20:18:58.940Z,5.10
2023-03-16T20:22:01.582Z,5.04
2023-03-16T20:25:04.132Z,4.91
2023-03-16T20:28:06.926Z,4.80
2023-03-16T20:31:19.009Z,4.76
2023-03-16T20:34:23.157Z,4.73
2023-03-16T20:37:27.575Z,4.75
2023-03-16T20:40:30.303Z,4.73
2023-03-16T20:43:33.079Z,4.66
2023-03-16T20:46:39.528Z,4.59
2023-03-16T20:49:41.907Z,4.58
2023-03-16T20:52:43.837Z,4.52
2023-03-16T20:55:49.447Z,4.47
2023-03-16T20:58:51.700Z,4.43
2023-03-16T21:01:53.764Z,4.40
2023-03-16T21:04:56.340Z,4.44
2023-03-16T21:07:58.380Z,4.46
2023-03-16T21:11:00.543Z,4.48
2023-03-16T21:14:02.863Z,4.42
2023-03-16T21:17:09.065Z,4.43
2023-03-16T21:20:30.843Z,4.33
2023-03-16T21:23:33.011Z,4.38
2023-03-16T21:26:34.926Z,4.18
2023-03-16T21:29:36.861Z,4.16
2023-03-16T21:32:38.588Z,4.25
2023-03-16T21:35:40.398Z,4.24
2023-03-16T21:38:42.174Z,4.26
2023-03-16T21:41:43.804Z,4.22
2023-03-16T21:44:45.553Z,4.21
2023-03-16T21:47:47.278Z,4.30
2023-03-16T21:50:49.482Z,4.32
2023-03-16T21:53:51.219Z,4.43
2023-03-16T21:56:52.868Z,4.38
2023-03-16T21:59:54.613Z,4.55
2023-03-16T22:02:57.759Z,4.60
2023-03-16T22:05:59.538Z,4.48
2023-03-16T22:09:01.174Z,4.52
2023-03-16T22:12:02.816Z,4.50
2023-03-16T22:15:04.760Z,4.52
2023-03-16T22:18:07.627Z,4.44
2023-03-16T22:21:27.472Z,4.53
2023-03-16T22:24:29.631Z,4.53
2023-03-16T22:27:31.288Z,4.50
2023-03-16T22:30:32.925Z,4.54
2023-03-16T22:33:35.216Z,4.51
2023-03-16T22:36:36.879Z,4.51
2023-03-16T22:39:38.641Z,4.50
2023-03-16T22:42:40.249Z,4.54
2023-03-16T22:45:41.915Z,4.39
2023-03-16T22:48:43.567Z,4.55
2023-03-16T22:51:45.212Z,4.53
2023-03-16T22:54:46.887Z,4.49
2023-03-16T22:58:00.021Z,4.44
2023-03-16T23:01:06.041Z,4.47
2023-03-16T23:04:13.623Z,4.47
2023-03-16T23:07:15.411Z,4.40
2023-03-16T23:10:18.278Z,4.39
2023-03-16T23:13:21.199Z,4.23
2023-03-16T23:16:24.666Z,4.03
2023-03-16T23:19:30.740Z,3.93
2023-03-16T23:22:32.404Z,3.83
2023-03-16T23:25:34.070Z,3.60
2023-03-16T23:28:35.731Z,3.58
2023-03-16T23:31:37.398Z,3.33
2023-03-16T23:34:39.033Z,3.30
2023-03-16T23:37:40.682Z,3.28
2023-03-16T23:40:42.323Z,3.18
2023-03-16T23:43:44.657Z,3.32
2023-03-16T23:46:46.321Z,3.40
2023-03-16T23:49:47.965Z,3.46
2023-03-16T23:52:49.622Z,3.51
2023-03-16T23:55:51.217Z,3.44
2023-03-16T23:58:53.810Z,3.30
